sensor_id;sensor_type;location;lat;lon;timestamp;pressure;altitude;pressure_sealevel;temperature;humidity
9746;BME280;4912;50.836;12.958;2023-09-08T00:01:13;98326.47;;;20.27;64.09
9746;BME280;4912;50.836;12.958;2023-09-08T00:03:43;98326.75;;;20.24;64.17
9746;BME280;4912;50.836;12.958;2023-09-08T00:06:14;98318.34;;;20.18;65.65
9746;BME280;4912;50.836;12.958;2023-09-08T00:08:44;98321.69;;;20.17;65.91
9746;BME280;4912;50.836;12.958;2023-09-08T00:11:15;98326.81;;;20.13;66.18
9746;BME280;4912;50.836;12.958;2023-09-08T00:13:45;98321.47;;;20.09;66.66
9746;BME280;4912;50.836;12.958;2023-09-08T00:16:19;98318.19;;;20.05;66.89
9746;BME280;4912;50.836;12.958;2023-09-08T00:18:50;98314.38;;;20.02;67.25
9746;BME280;4912;50.836;12.958;2023-09-08T00:21:20;98315.13;;;20.03;67.46
9746;BME280;4912;50.836;12.958;2023-09-08T00:23:51;98311.31;;;20.00;67.73
9746;BME280;4912;50.836;12.958;2023-09-08T00:26:21;98311.56;;;19.97;67.60
9746;BME280;4912;50.836;12.958;2023-09-08T00:28:52;98309.53;;;19.97;68.11
9746;BME280;4912;50.836;12.958;2023-09-08T00:31:25;98319.00;;;19.94;68.27
9746;BME280;4912;50.836;12.958;2023-09-08T00:33:55;98314.69;;;19.93;68.33
9746;BME280;4912;50.836;12.958;2023-09-08T00:36:26;98318.53;;;19.90;68.65
9746;BME280;4912;50.836;12.958;2023-09-08T00:38:56;98313.94;;;19.87;68.50
9746;BME280;4912;50.836;12.958;2023-09-08T00:41:27;98310.41;;;19.81;69.19
9746;BME280;4912;50.836;12.958;2023-09-08T00:43:57;98315.25;;;19.81;69.56
9746;BME280;4912;50.836;12.958;2023-09-08T00:46:30;98314.25;;;19.78;69.36
9746;BME280;4912;50.836;12.958;2023-09-08T00:49:02;98311.72;;;19.75;69.22
9746;BME280;4912;50.836;12.958;2023-09-08T00:51:33;98309.19;;;19.71;69.13
9746;BME280;4912;50.836;12.958;2023-09-08T00:54:05;98310.75;;;19.67;69.25
9746;BME280;4912;50.836;12.958;2023-09-08T00:56:36;98307.16;;;19.66;68.90
9746;BME280;4912;50.836;12.958;2023-09-08T00:59:07;98305.38;;;19.63;69.24
9746;BME280;4912;50.836;12.958;2023-09-08T01:01:47;98304.63;;;19.57;69.37
9746;BME280;4912;50.836;12.958;2023-09-08T01:04:21;98314.13;;;19.43;70.71
9746;BME280;4912;50.836;12.958;2023-09-08T01:07:06;98310.78;;;19.44;70.23
9746;BME280;4912;50.836;12.958;2023-09-08T01:09:37;98309.78;;;19.42;70.32
9746;BME280;4912;50.836;12.958;2023-09-08T01:12:22;98319.47;;;19.41;70.64
9746;BME280;4912;50.836;12.958;2023-09-08T01:14:57;98315.91;;;19.40;71.22
9746;BME280;4912;50.836;12.958;2023-09-08T01:23:55;98303.19;;;19.34;71.73
9746;BME280;4912;50.836;12.958;2023-09-08T01:26:45;98306.75;;;19.34;71.87
9746;BME280;4912;50.836;12.958;2023-09-08T01:29:26;98300.13;;;19.32;72.21
9746;BME280;4912;50.836;12.958;2023-09-08T01:32:06;98306.00;;;19.28;72.20
9746;BME280;4912;50.836;12.958;2023-09-08T01:34:40;98301.44;;;19.25;72.60
9746;BME280;4912;50.836;12.958;2023-09-08T01:37:13;98303.97;;;19.23;72.81
9746;BME280;4912;50.836;12.958;2023-09-08T01:39:43;98301.19;;;19.23;72.73
9746;BME280;4912;50.836;12.958;2023-09-08T01:42:27;98307.06;;;19.19;72.73
9746;BME280;4912;50.836;12.958;2023-09-08T01:45:11;98309.88;;;19.19;72.94
9746;BME280;4912;50.836;12.958;2023-09-08T01:47:50;98311.66;;;19.17;73.02
9746;BME280;4912;50.836;12.958;2023-09-08T01:53:15;98300.19;;;19.09;73.11
9746;BME280;4912;50.836;12.958;2023-09-08T01:56:09;98305.56;;;19.13;73.17
9746;BME280;4912;50.836;12.958;2023-09-08T01:59:07;98304.00;;;19.12;72.83
9746;BME280;4912;50.836;12.958;2023-09-08T02:01:40;98299.41;;;19.09;73.15
9746;BME280;4912;50.836;12.958;2023-09-08T02:04:28;98293.06;;;19.08;73.35
9746;BME280;4912;50.836;12.958;2023-09-08T02:07:29;98303.00;;;19.04;73.58
9746;BME280;4912;50.836;12.958;2023-09-08T02:10:07;98304.28;;;18.97;74.21
9746;BME280;4912;50.836;12.958;2023-09-08T02:12:56;98306.84;;;19.01;73.87
9746;BME280;4912;50.836;12.958;2023-09-08T02:15:38;98308.88;;;19.00;74.08
9746;BME280;4912;50.836;12.958;2023-09-08T02:18:32;98311.19;;;18.96;74.24
9746;BME280;4912;50.836;12.958;2023-09-08T02:32:06;98313.47;;;18.92;74.67
9746;BME280;4912;50.836;12.958;2023-09-08T02:34:36;98318.09;;;18.90;74.54
9746;BME280;4912;50.836;12.958;2023-09-08T02:37:09;98321.66;;;18.90;74.51
9746;BME280;4912;50.836;12.958;2023-09-08T02:39:39;98311.44;;;18.87;74.46
9746;BME280;4912;50.836;12.958;2023-09-08T02:42:10;98318.34;;;18.86;74.51
9746;BME280;4912;50.836;12.958;2023-09-08T02:44:40;98318.88;;;18.85;74.94
9746;BME280;4912;50.836;12.958;2023-09-08T02:47:13;98318.09;;;18.84;74.84
9746;BME280;4912;50.836;12.958;2023-09-08T02:49:43;98310.47;;;18.79;74.73
9746;BME280;4912;50.836;12.958;2023-09-08T02:52:14;98310.19;;;18.77;74.71
9746;BME280;4912;50.836;12.958;2023-09-08T02:54:46;98311.22;;;18.74;74.71
9746;BME280;4912;50.836;12.958;2023-09-08T02:57:17;98310.22;;;18.71;74.85
9746;BME280;4912;50.836;12.958;2023-09-08T02:59:51;98307.91;;;18.70;74.48
9746;BME280;4912;50.836;12.958;2023-09-08T03:02:26;98308.94;;;18.67;75.06
9746;BME280;4912;50.836;12.958;2023-09-08T03:04:57;98309.44;;;18.65;75.24
9746;BME280;4912;50.836;12.958;2023-09-08T03:07:28;98303.56;;;18.63;75.40
9746;BME280;4912;50.836;12.958;2023-09-08T03:10:00;98296.97;;;18.61;75.28
9746;BME280;4912;50.836;12.958;2023-09-08T03:12:31;98300.78;;;18.58;75.33
9746;BME280;4912;50.836;12.958;2023-09-08T03:15:01;98290.31;;;18.53;75.60
9746;BME280;4912;50.836;12.958;2023-09-08T03:17:34;98290.03;;;18.51;75.61
9746;BME280;4912;50.836;12.958;2023-09-08T03:20:05;98287.25;;;18.51;75.74
9746;BME280;4912;50.836;12.958;2023-09-08T03:22:37;98289.03;;;18.48;75.64
9746;BME280;4912;50.836;12.958;2023-09-08T03:25:08;98295.41;;;18.49;75.65
9746;BME280;4912;50.836;12.958;2023-09-08T03:27:38;98285.47;;;18.48;76.11
9746;BME280;4912;50.836;12.958;2023-09-08T03:30:09;98287.00;;;18.49;76.09
9746;BME280;4912;50.836;12.958;2023-09-08T03:32:43;98286.25;;;18.48;76.44
9746;BME280;4912;50.836;12.958;2023-09-08T03:35:13;98281.13;;;18.47;76.39
9746;BME280;4912;50.836;12.958;2023-09-08T03:37:43;98281.63;;;18.45;76.67
9746;BME280;4912;50.836;12.958;2023-09-08T03:40:14;98284.72;;;18.41;76.93
9746;BME280;4912;50.836;12.958;2023-09-08T03:42:44;98277.31;;;18.38;77.20
9746;BME280;4912;50.836;12.958;2023-09-08T03:45:15;98278.59;;;18.37;77.21
9746;BME280;4912;50.836;12.958;2023-09-08T03:47:48;98276.81;;;18.34;77.40
9746;BME280;4912;50.836;12.958;2023-09-08T03:50:18;98276.03;;;18.34;77.68
9746;BME280;4912;50.836;12.958;2023-09-08T03:52:49;98280.38;;;18.35;77.47
9746;BME280;4912;50.836;12.958;2023-09-08T03:55:20;98278.34;;;18.35;77.76
9746;BME280;4912;50.836;12.958;2023-09-08T03:57:50;98271.97;;;18.35;77.72
9746;BME280;4912;50.836;12.958;2023-09-08T04:00:18;98277.31;;;18.33;78.04
9746;BME280;4912;50.836;12.958;2023-09-08T04:02:52;98286.25;;;18.31;78.36
9746;BME280;4912;50.836;12.958;2023-09-08T04:05:23;98280.63;;;18.31;78.34
9746;BME280;4912;50.836;12.958;2023-09-08T04:07:54;98274.78;;;18.29;78.26
9746;BME280;4912;50.836;12.958;2023-09-08T04:10:24;98287.50;;;18.30;77.61
9746;BME280;4912;50.836;12.958;2023-09-08T04:12:55;98277.06;;;18.31;77.60
9746;BME280;4912;50.836;12.958;2023-09-08T04:15:26;98275.28;;;18.33;77.88
9746;BME280;4912;50.836;12.958;2023-09-08T04:17:58;98279.59;;;18.29;77.17
9746;BME280;4912;50.836;12.958;2023-09-08T04:20:29;98282.41;;;18.23;77.31
9746;BME280;4912;50.836;12.958;2023-09-08T04:22:59;98280.09;;;18.22;77.74
9746;BME280;4912;50.836;12.958;2023-09-08T04:25:30;98281.91;;;18.14;78.64
9746;BME280;4912;50.836;12.958;2023-09-08T04:28:01;98282.91;;;18.16;78.76
9746;BME280;4912;50.836;12.958;2023-09-08T04:30:32;98278.06;;;18.17;79.29
9746;BME280;4912;50.836;12.958;2023-09-08T04:33:05;98284.44;;;18.17;78.93
9746;BME280;4912;50.836;12.958;2023-09-08T04:35:35;98285.72;;;18.16;79.05
9746;BME280;4912;50.836;12.958;2023-09-08T04:38:05;98283.69;;;18.17;79.03
9746;BME280;4912;50.836;12.958;2023-09-08T04:40:39;98282.13;;;18.16;78.73
9746;BME280;4912;50.836;12.958;2023-09-08T04:43:10;98278.84;;;18.17;79.13
9746;BME280;4912;50.836;12.958;2023-09-08T04:45:40;98279.59;;;18.18;78.93
9746;BME280;4912;50.836;12.958;2023-09-08T04:48:13;98274.75;;;18.07;79.88
9746;BME280;4912;50.836;12.958;2023-09-08T04:50:44;98275.53;;;18.02;80.46
9746;BME280;4912;50.836;12.958;2023-09-08T04:53:14;98275.53;;;17.96;81.20
9746;BME280;4912;50.836;12.958;2023-09-08T04:55:44;98280.59;;;17.92;81.54
9746;BME280;4912;50.836;12.958;2023-09-08T04:58:17;98275.75;;;17.93;81.67
9746;BME280;4912;50.836;12.958;2023-09-08T05:00:48;98273.22;;;18.06;82.12
9746;BME280;4912;50.836;12.958;2023-09-08T05:03:21;98279.84;;;18.09;81.71
9746;BME280;4912;50.836;12.958;2023-09-08T05:05:53;98276.03;;;18.17;82.13
9746;BME280;4912;50.836;12.958;2023-09-08T05:08:23;98276.03;;;18.28;81.81
9746;BME280;4912;50.836;12.958;2023-09-08T05:10:54;98275.81;;;18.37;81.71
9746;BME280;4912;50.836;12.958;2023-09-08T05:13:24;98279.59;;;18.51;81.13
9746;BME280;4912;50.836;12.958;2023-09-08T05:15:59;98279.13;;;18.64;80.96
9746;BME280;4912;50.836;12.958;2023-09-08T05:18:49;98276.56;;;18.71;79.71
9746;BME280;4912;50.836;12.958;2023-09-08T05:21:20;98270.16;;;18.82;79.98
9746;BME280;4912;50.836;12.958;2023-09-08T05:23:50;98273.22;;;18.95;79.84
9746;BME280;4912;50.836;12.958;2023-09-08T05:26:21;98277.25;;;19.05;80.42
9746;BME280;4912;50.836;12.958;2023-09-08T05:28:52;98279.75;;;19.14;79.69
9746;BME280;4912;50.836;12.958;2023-09-08T05:31:23;98285.88;;;19.24;79.17
9746;BME280;4912;50.836;12.958;2023-09-08T05:33:56;98280.72;;;19.34;79.43
9746;BME280;4912;50.836;12.958;2023-09-08T05:36:27;98288.09;;;19.42;78.37
9746;BME280;4912;50.836;12.958;2023-09-08T05:38:58;98285.78;;;19.52;78.59
9746;BME280;4912;50.836;12.958;2023-09-08T05:41:29;98288.31;;;19.61;78.36
9746;BME280;4912;50.836;12.958;2023-09-08T05:44:02;98285.19;;;19.70;78.01
9746;BME280;4912;50.836;12.958;2023-09-08T05:46:32;98290.22;;;19.83;77.66
9746;BME280;4912;50.836;12.958;2023-09-08T05:49:06;98291.19;;;19.96;77.54
9746;BME280;4912;50.836;12.958;2023-09-08T05:51:36;98292.63;;;20.09;77.65
9746;BME280;4912;50.836;12.958;2023-09-08T05:54:06;98293.31;;;20.20;76.89
9746;BME280;4912;50.836;12.958;2023-09-08T05:56:37;98292.72;;;20.33;76.12
9746;BME280;4912;50.836;12.958;2023-09-08T05:59:08;98299.53;;;20.49;76.32
9746;BME280;4912;50.836;12.958;2023-09-08T06:01:39;98292.69;;;20.68;75.32
9746;BME280;4912;50.836;12.958;2023-09-08T06:04:12;98293.06;;;20.83;74.33
9746;BME280;4912;50.836;12.958;2023-09-08T06:06:44;98284.75;;;20.97;74.11
9746;BME280;4912;50.836;12.958;2023-09-08T06:09:14;98290.44;;;21.15;73.68
9746;BME280;4912;50.836;12.958;2023-09-08T06:11:44;98286.16;;;21.33;73.30
9746;BME280;4912;50.836;12.958;2023-09-08T06:14:15;98289.31;;;21.48;72.83
9746;BME280;4912;50.836;12.958;2023-09-08T06:19:20;98287.81;;;21.85;71.08
9746;BME280;4912;50.836;12.958;2023-09-08T06:21:51;98287.28;;;22.05;70.30
9746;BME280;4912;50.836;12.958;2023-09-08T06:24:22;98283.69;;;22.23;69.48
9746;BME280;4912;50.836;12.958;2023-09-08T06:26:52;98275.72;;;22.40;67.99
9746;BME280;4912;50.836;12.958;2023-09-08T06:29:23;98284.25;;;22.67;68.14
9746;BME280;4912;50.836;12.958;2023-09-08T06:31:53;98285.63;;;22.92;65.40
9746;BME280;4912;50.836;12.958;2023-09-08T06:34:26;98276.00;;;23.14;64.17
9746;BME280;4912;50.836;12.958;2023-09-08T06:36:56;98292.72;;;23.38;62.98
9746;BME280;4912;50.836;12.958;2023-09-08T06:39:27;98283.16;;;23.54;62.15
9746;BME280;4912;50.836;12.958;2023-09-08T06:41:59;98289.31;;;23.79;61.44
9746;BME280;4912;50.836;12.958;2023-09-08T06:44:29;98286.53;;;24.00;59.57
9746;BME280;4912;50.836;12.958;2023-09-08T06:46:59;98285.09;;;24.20;58.43
9746;BME280;4912;50.836;12.958;2023-09-08T06:49:32;98281.31;;;24.38;57.62
9746;BME280;4912;50.836;12.958;2023-09-08T06:52:04;98277.94;;;24.60;57.54
9746;BME280;4912;50.836;12.958;2023-09-08T06:54:35;98281.47;;;24.74;56.72
9746;BME280;4912;50.836;12.958;2023-09-08T06:57:05;98284.53;;;24.83;56.04
9746;BME280;4912;50.836;12.958;2023-09-08T06:59:36;98285.66;;;25.01;55.84
9746;BME280;4912;50.836;12.958;2023-09-08T07:02:06;98279.53;;;25.18;55.10
9746;BME280;4912;50.836;12.958;2023-09-08T07:04:39;98273.56;;;25.29;54.03
9746;BME280;4912;50.836;12.958;2023-09-08T07:07:10;98283.84;;;25.47;54.42
9746;BME280;4912;50.836;12.958;2023-09-08T07:09:40;98274.13;;;25.63;53.51
9746;BME280;4912;50.836;12.958;2023-09-08T07:12:10;98274.56;;;25.75;53.47
9746;BME280;4912;50.836;12.958;2023-09-08T07:14:41;98274.06;;;25.92;52.80
9746;BME280;4912;50.836;12.958;2023-09-08T07:17:11;98269.94;;;26.08;51.93
9746;BME280;4912;50.836;12.958;2023-09-08T07:19:44;98274.19;;;26.30;51.56
9746;BME280;4912;50.836;12.958;2023-09-08T07:22:14;98272.88;;;26.46;50.50
9746;BME280;4912;50.836;12.958;2023-09-08T07:24:45;98264.00;;;26.65;50.42
9746;BME280;4912;50.836;12.958;2023-09-08T07:27:16;98270.25;;;26.78;49.64
9746;BME280;4912;50.836;12.958;2023-09-08T07:29:47;98262.13;;;26.98;49.11
9746;BME280;4912;50.836;12.958;2023-09-08T07:32:17;98266.63;;;27.16;49.26
9746;BME280;4912;50.836;12.958;2023-09-08T07:34:51;98266.03;;;27.33;48.53
9746;BME280;4912;50.836;12.958;2023-09-08T07:37:23;98269.41;;;27.54;47.88
9746;BME280;4912;50.836;12.958;2023-09-08T07:39:54;98267.22;;;27.77;47.25
9746;BME280;4912;50.836;12.958;2023-09-08T07:42:24;98274.69;;;28.05;46.93
9746;BME280;4912;50.836;12.958;2023-09-08T07:44:55;98267.97;;;28.25;44.78
9746;BME280;4912;50.836;12.958;2023-09-08T07:47:25;98263.84;;;28.43;44.30
9746;BME280;4912;50.836;12.958;2023-09-08T07:52:49;98259.59;;;29.02;41.05
9746;BME280;4912;50.836;12.958;2023-09-08T07:55:20;98267.38;;;29.60;41.56
9746;BME280;4912;50.836;12.958;2023-09-08T07:57:54;98257.81;;;30.36;40.59
9746;BME280;4912;50.836;12.958;2023-09-08T08:00:25;98266.97;;;31.08;39.15
9746;BME280;4912;50.836;12.958;2023-09-08T08:02:56;98265.22;;;31.70;37.20
9746;BME280;4912;50.836;12.958;2023-09-08T08:05:30;98256.47;;;31.87;35.17
9746;BME280;4912;50.836;12.958;2023-09-08T08:08:00;98261.34;;;32.85;33.67
9746;BME280;4912;50.836;12.958;2023-09-08T08:10:30;98249.88;;;33.70;32.83
9746;BME280;4912;50.836;12.958;2023-09-08T08:13:01;98261.84;;;34.56;31.30
9746;BME280;4912;50.836;12.958;2023-09-08T08:15:35;98261.66;;;34.75;29.65
9746;BME280;4912;50.836;12.958;2023-09-08T08:18:06;98260.72;;;35.07;28.59
9746;BME280;4912;50.836;12.958;2023-09-08T08:20:39;98264.63;;;35.60;27.68
9746;BME280;4912;50.836;12.958;2023-09-08T08:23:10;98269.56;;;35.46;26.80
9746;BME280;4912;50.836;12.958;2023-09-08T08:25:40;98264.91;;;35.90;27.25
9746;BME280;4912;50.836;12.958;2023-09-08T08:28:10;98257.88;;;35.93;26.67
9746;BME280;4912;50.836;12.958;2023-09-08T08:30:41;98259.13;;;36.15;26.04
9746;BME280;4912;50.836;12.958;2023-09-08T08:33:14;98252.16;;;36.32;25.45
9746;BME280;4912;50.836;12.958;2023-09-08T08:35:50;98247.56;;;36.27;26.02
9746;BME280;4912;50.836;12.958;2023-09-08T08:38:21;98243.59;;;36.73;25.28
9746;BME280;4912;50.836;12.958;2023-09-08T08:40:51;98251.41;;;36.84;25.13
9746;BME280;4912;50.836;12.958;2023-09-08T08:43:21;98238.75;;;36.50;25.27
9746;BME280;4912;50.836;12.958;2023-09-08T08:45:53;98251.66;;;36.49;25.01
9746;BME280;4912;50.836;12.958;2023-09-08T08:48:24;98237.06;;;36.72;25.07
9746;BME280;4912;50.836;12.958;2023-09-08T08:50:58;98248.31;;;36.94;24.56
9746;BME280;4912;50.836;12.958;2023-09-08T08:53:31;98251.72;;;37.17;24.31
9746;BME280;4912;50.836;12.958;2023-09-08T08:56:01;98236.22;;;36.83;24.43
9746;BME280;4912;50.836;12.958;2023-09-08T08:58:33;98239.66;;;37.21;24.16
9746;BME280;4912;50.836;12.958;2023-09-08T09:01:04;98238.97;;;37.79;23.93
9746;BME280;4912;50.836;12.958;2023-09-08T09:03:35;98235.34;;;38.24;23.31
9746;BME280;4912;50.836;12.958;2023-09-08T09:06:09;98231.28;;;38.44;23.15
9746;BME280;4912;50.836;12.958;2023-09-08T09:08:40;98227.91;;;38.34;22.41
9746;BME280;4912;50.836;12.958;2023-09-08T09:11:11;98229.50;;;38.53;22.78
9746;BME280;4912;50.836;12.958;2023-09-08T09:13:41;98232.84;;;38.16;22.18
9746;BME280;4912;50.836;12.958;2023-09-08T09:16:11;98232.56;;;38.10;22.93
9746;BME280;4912;50.836;12.958;2023-09-08T09:18:52;98223.97;;;38.12;22.60
9746;BME280;4912;50.836;12.958;2023-09-08T09:21:40;98231.94;;;38.59;22.24
9746;BME280;4912;50.836;12.958;2023-09-08T09:24:14;98227.16;;;38.34;21.91
9746;BME280;4912;50.836;12.958;2023-09-08T09:26:46;98220.31;;;38.11;22.39
9746;BME280;4912;50.836;12.958;2023-09-08T09:29:22;98219.31;;;38.21;22.51
9746;BME280;4912;50.836;12.958;2023-09-08T09:31:52;98228.84;;;38.23;22.33
9746;BME280;4912;50.836;12.958;2023-09-08T09:34:23;98215.72;;;38.52;22.23
9746;BME280;4912;50.836;12.958;2023-09-08T09:36:56;98223.72;;;38.69;21.82
9746;BME280;4912;50.836;12.958;2023-09-08T09:39:26;98212.22;;;38.71;22.15
9746;BME280;4912;50.836;12.958;2023-09-08T09:41:57;98224.84;;;38.62;22.05
9746;BME280;4912;50.836;12.958;2023-09-08T09:44:27;98207.03;;;38.52;21.74
9746;BME280;4912;50.836;12.958;2023-09-08T09:46:58;98217.47;;;38.43;21.37
9746;BME280;4912;50.836;12.958;2023-09-08T09:49:30;98217.84;;;38.67;21.40
9746;BME280;4912;50.836;12.958;2023-09-08T09:52:03;98215.59;;;38.65;20.86
9746;BME280;4912;50.836;12.958;2023-09-08T09:54:34;98218.00;;;38.08;21.38
9746;BME280;4912;50.836;12.958;2023-09-08T09:57:04;98215.03;;;38.37;21.37
9746;BME280;4912;50.836;12.958;2023-09-08T09:59:34;98216.84;;;37.99;21.22
9746;BME280;4912;50.836;12.958;2023-09-08T10:02:05;98213.25;;;38.30;21.67
9746;BME280;4912;50.836;12.958;2023-09-08T10:04:37;98205.78;;;38.25;20.74
9746;BME280;4912;50.836;12.958;2023-09-08T10:07:11;98204.50;;;38.28;20.84
9746;BME280;4912;50.836;12.958;2023-09-08T10:09:42;98212.97;;;38.24;21.47
9746;BME280;4912;50.836;12.958;2023-09-08T10:12:13;98208.22;;;38.78;21.74
9746;BME280;4912;50.836;12.958;2023-09-08T10:14:46;98205.63;;;38.68;20.20
9746;BME280;4912;50.836;12.958;2023-09-08T10:17:20;98203.69;;;39.06;20.26
9746;BME280;4912;50.836;12.958;2023-09-08T10:19:55;98200.16;;;39.25;20.39
9746;BME280;4912;50.836;12.958;2023-09-08T10:22:30;98207.78;;;39.68;20.17
9746;BME280;4912;50.836;12.958;2023-09-08T10:25:30;98193.53;;;39.74;20.22
9746;BME280;4912;50.836;12.958;2023-09-08T10:28:02;98192.78;;;39.91;19.93
9746;BME280;4912;50.836;12.958;2023-09-08T10:30:34;98187.59;;;39.88;19.36
9746;BME280;4912;50.836;12.958;2023-09-08T10:33:05;98197.50;;;39.65;18.65
9746;BME280;4912;50.836;12.958;2023-09-08T10:35:36;98186.16;;;39.02;19.58
9746;BME280;4912;50.836;12.958;2023-09-08T10:44:06;98186.06;;;39.00;19.17
9746;BME280;4912;50.836;12.958;2023-09-08T10:46:37;98188.94;;;39.00;18.93
9746;BME280;4912;50.836;12.958;2023-09-08T10:49:07;98183.84;;;39.50;19.12
9746;BME280;4912;50.836;12.958;2023-09-08T10:51:39;98183.69;;;39.63;18.23
9746;BME280;4912;50.836;12.958;2023-09-08T10:54:14;98182.59;;;39.72;17.89
9746;BME280;4912;50.836;12.958;2023-09-08T10:57:12;98175.75;;;39.64;17.95
9746;BME280;4912;50.836;12.958;2023-09-08T10:59:44;98178.78;;;40.41;18.05
9746;BME280;4912;50.836;12.958;2023-09-08T11:05:04;98167.66;;;40.95;17.81
9746;BME280;4912;50.836;12.958;2023-09-08T11:07:37;98181.00;;;40.62;16.72
9746;BME280;4912;50.836;12.958;2023-09-08T11:10:11;98169.66;;;40.68;16.62
9746;BME280;4912;50.836;12.958;2023-09-08T11:12:42;98174.47;;;40.81;16.39
9746;BME280;4912;50.836;12.958;2023-09-08T11:15:12;98162.94;;;41.25;16.16
9746;BME280;4912;50.836;12.958;2023-09-08T11:17:42;98160.44;;;41.37;15.87
9746;BME280;4912;50.836;12.958;2023-09-08T11:20:25;98164.19;;;41.85;16.33
9746;BME280;4912;50.836;12.958;2023-09-08T11:22:56;98164.47;;;41.72;15.49
9746;BME280;4912;50.836;12.958;2023-09-08T11:25:29;98159.50;;;41.74;15.53
9746;BME280;4912;50.836;12.958;2023-09-08T11:27:59;98158.28;;;42.29;15.43
9746;BME280;4912;50.836;12.958;2023-09-08T11:30:30;98160.81;;;42.66;14.79
9746;BME280;4912;50.836;12.958;2023-09-08T11:33:00;98152.16;;;43.22;14.84
9746;BME280;4912;50.836;12.958;2023-09-08T11:35:31;98155.63;;;43.74;14.73
9746;BME280;4912;50.836;12.958;2023-09-08T11:38:01;98151.69;;;43.91;14.61
9746;BME280;4912;50.836;12.958;2023-09-08T11:40:34;98152.78;;;44.08;14.10
9746;BME280;4912;50.836;12.958;2023-09-08T11:43:05;98152.47;;;44.28;14.75
9746;BME280;4912;50.836;12.958;2023-09-08T11:45:36;98152.69;;;44.36;13.85
9746;BME280;4912;50.836;12.958;2023-09-08T11:48:06;98152.19;;;44.47;13.74
9746;BME280;4912;50.836;12.958;2023-09-08T11:50:37;98152.91;;;44.84;13.37
9746;BME280;4912;50.836;12.958;2023-09-08T11:53:10;98144.47;;;45.02;13.10
9746;BME280;4912;50.836;12.958;2023-09-08T11:55:43;98147.75;;;44.80;12.53
9746;BME280;4912;50.836;12.958;2023-09-08T11:58:13;98150.03;;;45.24;13.36
9746;BME280;4912;50.836;12.958;2023-09-08T12:00:44;98145.63;;;45.23;13.25
9746;BME280;4912;50.836;12.958;2023-09-08T12:03:16;98145.50;;;45.61;13.47
9746;BME280;4912;50.836;12.958;2023-09-08T12:05:50;98143.94;;;46.00;13.16
9746;BME280;4912;50.836;12.958;2023-09-08T12:08:24;98140.63;;;45.78;12.46
9746;BME280;4912;50.836;12.958;2023-09-08T12:10:57;98141.00;;;46.02;12.52
9746;BME280;4912;50.836;12.958;2023-09-08T12:13:27;98136.69;;;46.05;12.20
9746;BME280;4912;50.836;12.958;2023-09-08T12:15:57;98134.19;;;45.83;12.09
9746;BME280;4912;50.836;12.958;2023-09-08T12:18:37;98121.19;;;45.94;12.16
9746;BME280;4912;50.836;12.958;2023-09-08T12:21:10;98132.19;;;45.98;12.03
9746;BME280;4912;50.836;12.958;2023-09-08T12:23:47;98134.63;;;45.65;12.51
9746;BME280;4912;50.836;12.958;2023-09-08T12:26:21;98123.78;;;46.24;12.28
9746;BME280;4912;50.836;12.958;2023-09-08T12:28:51;98127.59;;;46.39;12.09
9746;BME280;4912;50.836;12.958;2023-09-08T12:31:22;98120.44;;;45.94;12.04
9746;BME280;4912;50.836;12.958;2023-09-08T12:33:52;98110.97;;;45.97;12.21
9746;BME280;4912;50.836;12.958;2023-09-08T12:36:23;98111.28;;;46.20;12.49
9746;BME280;4912;50.836;12.958;2023-09-08T12:38:53;98105.34;;;46.76;12.45
9746;BME280;4912;50.836;12.958;2023-09-08T12:41:26;98096.78;;;46.98;12.00
9746;BME280;4912;50.836;12.958;2023-09-08T12:43:56;98104.00;;;46.87;12.03
9746;BME280;4912;50.836;12.958;2023-09-08T12:46:26;98100.06;;;47.37;11.75
9746;BME280;4912;50.836;12.958;2023-09-08T12:48:59;98090.50;;;47.30;12.08
9746;BME280;4912;50.836;12.958;2023-09-08T12:51:29;98086.78;;;47.28;12.09
9746;BME280;4912;50.836;12.958;2023-09-08T12:53:59;98092.75;;;47.36;12.15
9746;BME280;4912;50.836;12.958;2023-09-08T12:56:32;98094.34;;;47.57;12.25
9746;BME280;4912;50.836;12.958;2023-09-08T12:59:02;98096.09;;;48.00;12.20
9746;BME280;4912;50.836;12.958;2023-09-08T13:01:33;98091.78;;;48.18;11.70
9746;BME280;4912;50.836;12.958;2023-09-08T13:04:03;98087.97;;;47.93;11.40
9746;BME280;4912;50.836;12.958;2023-09-08T13:06:34;98081.50;;;48.19;11.38
9746;BME280;4912;50.836;12.958;2023-09-08T13:09:04;98085.88;;;48.10;11.57
9746;BME280;4912;50.836;12.958;2023-09-08T13:11:38;98082.72;;;47.71;11.78
9746;BME280;4912;50.836;12.958;2023-09-08T13:14:08;98076.75;;;47.57;11.88
9746;BME280;4912;50.836;12.958;2023-09-08T13:16:38;98077.38;;;47.43;11.99
9746;BME280;4912;50.836;12.958;2023-09-08T13:19:09;98080.31;;;47.43;11.79
9746;BME280;4912;50.836;12.958;2023-09-08T13:21:39;98074.31;;;47.27;12.00
9746;BME280;4912;50.836;12.958;2023-09-08T13:24:09;98078.56;;;47.10;11.86
9746;BME280;4912;50.836;12.958;2023-09-08T13:26:42;98067.69;;;47.22;11.91
9746;BME280;4912;50.836;12.958;2023-09-08T13:29:13;98066.31;;;47.34;11.58
9746;BME280;4912;50.836;12.958;2023-09-08T13:31:43;98066.47;;;47.56;11.89
9746;BME280;4912;50.836;12.958;2023-09-08T13:34:14;98060.00;;;47.76;11.93
9746;BME280;4912;50.836;12.958;2023-09-08T13:36:44;98060.09;;;47.96;11.87
9746;BME280;4912;50.836;12.958;2023-09-08T13:39:14;98062.06;;;47.53;11.83
9746;BME280;4912;50.836;12.958;2023-09-08T13:41:51;98066.22;;;47.21;11.89
9746;BME280;4912;50.836;12.958;2023-09-08T13:44:23;98057.56;;;47.36;12.05
9746;BME280;4912;50.836;12.958;2023-09-08T13:46:53;98063.38;;;47.30;11.98
9746;BME280;4912;50.836;12.958;2023-09-08T13:49:25;98060.38;;;47.25;12.50
9746;BME280;4912;50.836;12.958;2023-09-08T13:51:56;98062.91;;;47.70;12.15
9746;BME280;4912;50.836;12.958;2023-09-08T13:54:31;98055.97;;;47.22;12.56
9746;BME280;4912;50.836;12.958;2023-09-08T13:57:08;98054.69;;;47.50;12.76
9746;BME280;4912;50.836;12.958;2023-09-08T13:59:40;98057.94;;;48.00;12.60
9746;BME280;4912;50.836;12.958;2023-09-08T14:02:15;98050.31;;;47.51;12.73
9746;BME280;4912;50.836;12.958;2023-09-08T14:04:52;98061.28;;;47.46;12.67
9746;BME280;4912;50.836;12.958;2023-09-08T14:07:29;98051.72;;;47.42;12.32
9746;BME280;4912;50.836;12.958;2023-09-08T14:10:04;98057.63;;;47.50;12.61
9746;BME280;4912;50.836;12.958;2023-09-08T14:12:41;98051.03;;;47.49;12.96